DAH442 EGLL-DAAG
Flight info
| Callsign | DAH442 |
|---|---|
| Flight time | N/A |
| Altitude | 41000 |
| Route | MAXIT1G MAXIT Y803 MID L612 BENBO UY47 DRAKE L151 SITET UN859 SOPIL DCT BALAN DCT EVPOK DCT NARAK DCT GAI DCT LOMRA DCT ROCAN DCT PUMAL N859 GENIO N855 BUYAH DCT |
| Aircraft | A339/H-V/N |
Departure
| Time | 2026-05-04 07:56 |
|---|---|
| Airport | London Heathrow Airport (EGLL) |
Arrival
| Time | N/A |
|---|---|
| Airport | Houari Boumediene Airport (DAAG) |
| Time | Latitude | Longitude | Altitude | Speed | Heading |
|---|---|---|---|---|---|
| 2026-05-04 07:56 | 51.39192 | -0.61050 | 7126 ft | 245 kts | 148° |
| 2026-05-04 07:56 | 51.37769 | -0.59511 | 7744 ft | 246 kts | 153° |
| 2026-05-04 07:56 | 51.36191 | -0.58498 | 8437 ft | 245 kts | 162° |
| 2026-05-04 07:57 | 51.34557 | -0.57590 | 9034 ft | 252 kts | 162° |
| 2026-05-04 07:57 | 51.32887 | -0.56607 | 9609 ft | 260 kts | 162° |
| 2026-05-04 07:57 | 51.31080 | -0.55763 | 9874 ft | 279 kts | 168° |
| 2026-05-04 07:57 | 51.29127 | -0.55468 | 10309 ft | 289 kts | 183° |
| 2026-05-04 07:58 | 51.27081 | -0.55969 | 10489 ft | 307 kts | 194° |
| 2026-05-04 07:58 | 51.24917 | -0.56630 | 10697 ft | 325 kts | 190° |
| 2026-05-04 07:58 | 51.22658 | -0.57179 | 11255 ft | 330 kts | 190° |
| 2026-05-04 07:58 | 51.20388 | -0.57781 | 11880 ft | 332 kts | 191° |
| 2026-05-04 07:59 | 51.18103 | -0.58451 | 12503 ft | 335 kts | 191° |
| 2026-05-04 07:59 | 51.15804 | -0.59167 | 13122 ft | 338 kts | 192° |
| 2026-05-04 07:59 | 51.13490 | -0.59908 | 13731 ft | 341 kts | 192° |
| 2026-05-04 07:59 | 51.11153 | -0.60663 | 14296 ft | 344 kts | 192° |
| 2026-05-04 08:00 | 51.08802 | -0.61421 | 14861 ft | 346 kts | 192° |
| 2026-05-04 08:00 | 51.06432 | -0.61792 | 15358 ft | 350 kts | 177° |
| 2026-05-04 08:00 | 51.04058 | -0.60927 | 15928 ft | 354 kts | 159° |
| 2026-05-04 08:02 | 50.89355 | -0.45387 | 19478 ft | 375 kts | 148° |
| 2026-05-04 08:02 | 50.87179 | -0.43079 | 19979 ft | 377 kts | 148° |
| 2026-05-04 08:02 | 50.84994 | -0.40764 | 20499 ft | 379 kts | 148° |
| 2026-05-04 08:03 | 50.82795 | -0.38435 | 20977 ft | 382 kts | 149° |
| 2026-05-04 08:03 | 50.80578 | -0.36092 | 21470 ft | 384 kts | 149° |
| 2026-05-04 08:03 | 50.78345 | -0.33733 | 21963 ft | 387 kts | 149° |
| 2026-05-04 08:03 | 50.76098 | -0.31364 | 22452 ft | 390 kts | 149° |
| 2026-05-04 08:04 | 50.73835 | -0.28980 | 22932 ft | 392 kts | 149° |
| 2026-05-04 08:04 | 50.71585 | -0.26611 | 23428 ft | 395 kts | 149° |
| 2026-05-04 08:04 | 50.69289 | -0.24198 | 23874 ft | 397 kts | 149° |
| 2026-05-04 08:04 | 50.66982 | -0.21775 | 24350 ft | 398 kts | 149° |
| 2026-05-04 08:05 | 50.64676 | -0.19355 | 24803 ft | 399 kts | 149° |
| 2026-05-04 08:05 | 50.62361 | -0.16931 | 25299 ft | 399 kts | 149° |
| 2026-05-04 08:05 | 50.60037 | -0.14499 | 25731 ft | 401 kts | 150° |
| 2026-05-04 08:05 | 50.57706 | -0.12063 | 26168 ft | 403 kts | 150° |
| 2026-05-04 08:06 | 50.55398 | -0.09655 | 26600 ft | 404 kts | 150° |
| 2026-05-04 08:06 | 50.53052 | -0.07208 | 27032 ft | 406 kts | 150° |
| 2026-05-04 08:06 | 50.50698 | -0.04758 | 27460 ft | 407 kts | 150° |
| 2026-05-04 08:06 | 50.48302 | -0.02385 | 27850 ft | 406 kts | 156° |
| 2026-05-04 08:08 | 50.29456 | -0.04586 | 30529 ft | 403 kts | 193° |
| 2026-05-04 08:08 | 50.26711 | -0.05564 | 30813 ft | 406 kts | 193° |
| 2026-05-04 08:10 | 50.04228 | 0.02318 | 32837 ft | 433 kts | 169° |
| 2026-05-04 08:11 | 50.01291 | 0.03454 | 33042 ft | 435 kts | 169° |
| 2026-05-04 08:11 | 49.95389 | 0.05760 | 33373 ft | 439 kts | 168° |
| 2026-05-04 08:11 | 49.92458 | 0.06910 | 33532 ft | 440 kts | 168° |
| 2026-05-04 08:12 | 49.89475 | 0.08082 | 33728 ft | 440 kts | 168° |
| 2026-05-04 08:12 | 49.86503 | 0.09247 | 33919 ft | 440 kts | 168° |
| 2026-05-04 08:12 | 49.83532 | 0.10411 | 34095 ft | 441 kts | 168° |
| 2026-05-04 08:12 | 49.80568 | 0.11570 | 34237 ft | 441 kts | 168° |
| 2026-05-04 08:13 | 49.77584 | 0.12734 | 34384 ft | 442 kts | 168° |
| 2026-05-04 08:13 | 49.74601 | 0.13897 | 34529 ft | 443 kts | 168° |
| 2026-05-04 08:13 | 49.71611 | 0.15060 | 34695 ft | 443 kts | 168° |
| 2026-05-04 08:13 | 49.68625 | 0.16220 | 34833 ft | 443 kts | 168° |
| 2026-05-04 08:14 | 49.65627 | 0.17400 | 34974 ft | 444 kts | 168° |
| 2026-05-04 08:14 | 49.62671 | 0.18594 | 35111 ft | 445 kts | 167° |
| 2026-05-04 08:14 | 49.59674 | 0.19812 | 35259 ft | 445 kts | 167° |
| 2026-05-04 08:16 | 49.38628 | 0.28262 | 36359 ft | 448 kts | 168° |
| 2026-05-04 08:16 | 49.35612 | 0.29465 | 36503 ft | 448 kts | 168° |
| 2026-05-04 08:16 | 49.32597 | 0.30666 | 36637 ft | 448 kts | 168° |
| 2026-05-04 08:17 | 49.29618 | 0.31856 | 36774 ft | 449 kts | 167° |
| 2026-05-04 08:17 | 49.26601 | 0.33115 | 36919 ft | 449 kts | 167° |
| 2026-05-04 08:17 | 49.23584 | 0.34402 | 37057 ft | 450 kts | 167° |
| 2026-05-04 08:17 | 49.20562 | 0.35690 | 37192 ft | 450 kts | 167° |
| 2026-05-04 08:19 | 48.99323 | 0.44609 | 38044 ft | 454 kts | 167° |
| 2026-05-04 08:19 | 48.96269 | 0.45880 | 38138 ft | 456 kts | 167° |
| 2026-05-04 08:20 | 48.93210 | 0.47154 | 38256 ft | 456 kts | 167° |
| 2026-05-04 08:20 | 48.90152 | 0.48426 | 38374 ft | 457 kts | 167° |
| 2026-05-04 08:20 | 48.87119 | 0.49686 | 38488 ft | 457 kts | 167° |
| 2026-05-04 08:20 | 48.84043 | 0.50963 | 38601 ft | 458 kts | 167° |
| 2026-05-04 08:21 | 48.80969 | 0.52236 | 38703 ft | 458 kts | 167° |
| 2026-05-04 08:21 | 48.77892 | 0.53508 | 38806 ft | 458 kts | 168° |
| 2026-05-04 08:21 | 48.74806 | 0.54738 | 38910 ft | 458 kts | 168° |
| 2026-05-04 08:21 | 48.71719 | 0.55939 | 39003 ft | 458 kts | 168° |
| 2026-05-04 08:22 | 48.68625 | 0.57138 | 39107 ft | 458 kts | 168° |
| 2026-05-04 08:22 | 48.65537 | 0.58338 | 39203 ft | 458 kts | 168° |
| 2026-05-04 08:24 | 48.44066 | 0.66825 | 39944 ft | 457 kts | 167° |
| 2026-05-04 08:24 | 48.40995 | 0.68084 | 40084 ft | 455 kts | 167° |
| 2026-05-04 08:24 | 48.37938 | 0.69332 | 40187 ft | 455 kts | 167° |
| 2026-05-04 08:24 | 48.34878 | 0.70575 | 40260 ft | 456 kts | 167° |
| 2026-05-04 08:25 | 48.28752 | 0.73053 | 40421 ft | 456 kts | 167° |
| 2026-05-04 08:25 | 48.22635 | 0.75512 | 40590 ft | 456 kts | 168° |
| 2026-05-04 08:26 | 48.19567 | 0.76719 | 40719 ft | 455 kts | 168° |
| 2026-05-04 08:27 | 48.03255 | 0.83107 | 40950 ft | 454 kts | 168° |